sensor_id;sensor_type;location;lat;lon;timestamp;pressure;altitude;pressure_sealevel;temperature;humidity
21706;BME280;11014;53.076;18.208;2023-08-17T00:00:19;101775.38;;;25.03;48.24
21706;BME280;11014;53.076;18.208;2023-08-17T00:03:07;101780.88;;;25.03;48.17
21706;BME280;11014;53.076;18.208;2023-08-17T00:05:36;101775.16;;;24.99;48.35
21706;BME280;11014;53.076;18.208;2023-08-17T00:08:05;101771.91;;;24.97;48.28
21706;BME280;11014;53.076;18.208;2023-08-17T00:10:33;101769.75;;;24.94;48.42
21706;BME280;11014;53.076;18.208;2023-08-17T00:13:02;101778.78;;;24.95;48.30
21706;BME280;11014;53.076;18.208;2023-08-17T00:15:32;101777.19;;;24.94;48.93
21706;BME280;11014;53.076;18.208;2023-08-17T00:18:00;101766.78;;;24.91;48.75
21706;BME280;11014;53.076;18.208;2023-08-17T00:20:29;101759.63;;;24.90;48.79
21706;BME280;11014;53.076;18.208;2023-08-17T00:22:57;101768.19;;;24.88;48.94
21706;BME280;11014;53.076;18.208;2023-08-17T00:25:26;101764.13;;;24.86;49.04
21706;BME280;11014;53.076;18.208;2023-08-17T00:27:54;101759.44;;;24.86;48.92
21706;BME280;11014;53.076;18.208;2023-08-17T00:30:23;101753.72;;;24.83;49.43
21706;BME280;11014;53.076;18.208;2023-08-17T00:32:52;101757.56;;;24.82;49.25
21706;BME280;11014;53.076;18.208;2023-08-17T00:35:20;101759.25;;;24.77;49.42
21706;BME280;11014;53.076;18.208;2023-08-17T00:37:49;101760.88;;;24.78;49.14
21706;BME280;11014;53.076;18.208;2023-08-17T00:40:18;101760.38;;;24.76;48.67
21706;BME280;11014;53.076;18.208;2023-08-17T00:42:46;101770.34;;;24.72;49.23
21706;BME280;11014;53.076;18.208;2023-08-17T00:45:18;101766.44;;;24.73;48.81
21706;BME280;11014;53.076;18.208;2023-08-17T00:47:47;101772.53;;;24.70;48.93
21706;BME280;11014;53.076;18.208;2023-08-17T00:50:16;101770.91;;;24.69;48.89
21706;BME280;11014;53.076;18.208;2023-08-17T00:52:44;101769.28;;;24.68;48.95
21706;BME280;11014;53.076;18.208;2023-08-17T00:55:13;101768.25;;;24.64;49.06
21706;BME280;11014;53.076;18.208;2023-08-17T00:57:42;101763.34;;;24.61;48.63
21706;BME280;11014;53.076;18.208;2023-08-17T01:00:14;101766.03;;;24.66;48.62
21706;BME280;11014;53.076;18.208;2023-08-17T01:02:46;101746.28;;;24.64;48.76
21706;BME280;11014;53.076;18.208;2023-08-17T01:05:18;101767.63;;;24.67;48.31
21706;BME280;11014;53.076;18.208;2023-08-17T01:07:46;101766.03;;;24.66;48.63
21706;BME280;11014;53.076;18.208;2023-08-17T01:10:15;101766.22;;;24.70;48.75
21706;BME280;11014;53.076;18.208;2023-08-17T01:12:52;101773.59;;;24.74;48.51
21706;BME280;11014;53.076;18.208;2023-08-17T01:15:36;101773.22;;;24.81;48.66
21706;BME280;11014;53.076;18.208;2023-08-17T01:18:34;101767.59;;;24.72;48.95
21706;BME280;11014;53.076;18.208;2023-08-17T01:21:06;101765.44;;;24.69;48.92
21706;BME280;11014;53.076;18.208;2023-08-17T01:23:36;101756.66;;;24.67;49.48
21706;BME280;11014;53.076;18.208;2023-08-17T01:26:04;101758.88;;;24.65;49.20
21706;BME280;11014;53.076;18.208;2023-08-17T01:28:33;101754.78;;;24.63;49.51
21706;BME280;11014;53.076;18.208;2023-08-17T01:31:11;101755.03;;;24.66;49.78
21706;BME280;11014;53.076;18.208;2023-08-17T01:34:03;101762.13;;;24.67;50.02
21706;BME280;11014;53.076;18.208;2023-08-17T01:36:37;101763.34;;;24.61;50.08
21706;BME280;11014;53.076;18.208;2023-08-17T01:39:08;101759.53;;;24.57;50.14
21706;BME280;11014;53.076;18.208;2023-08-17T01:41:39;101759.03;;;24.55;50.17
21706;BME280;11014;53.076;18.208;2023-08-17T01:44:09;101757.91;;;24.56;50.13
21706;BME280;11014;53.076;18.208;2023-08-17T01:46:38;101756.88;;;24.52;50.41
21706;BME280;11014;53.076;18.208;2023-08-17T01:49:07;101755.78;;;24.53;50.06
21706;BME280;11014;53.076;18.208;2023-08-17T01:51:36;101752.72;;;24.55;49.99
21706;BME280;11014;53.076;18.208;2023-08-17T01:54:04;101753.31;;;24.52;50.25
21706;BME280;11014;53.076;18.208;2023-08-17T01:56:34;101735.50;;;24.49;50.40
21706;BME280;11014;53.076;18.208;2023-08-17T01:59:02;101744.84;;;24.48;50.90
21706;BME280;11014;53.076;18.208;2023-08-17T02:01:31;101743.72;;;24.49;50.47
21706;BME280;11014;53.076;18.208;2023-08-17T02:03:59;101756.88;;;24.52;50.72
21706;BME280;11014;53.076;18.208;2023-08-17T02:06:31;101763.53;;;24.89;49.77
21706;BME280;11014;53.076;18.208;2023-08-17T02:08:59;101764.97;;;24.62;50.07
21706;BME280;11014;53.076;18.208;2023-08-17T02:11:28;101760.66;;;24.56;50.44
21706;BME280;11014;53.076;18.208;2023-08-17T02:13:57;101754.13;;;24.52;50.73
21706;BME280;11014;53.076;18.208;2023-08-17T02:16:26;101733.84;;;24.30;51.35
21706;BME280;11014;53.076;18.208;2023-08-17T02:18:55;101728.44;;;24.43;51.35
21706;BME280;11014;53.076;18.208;2023-08-17T02:21:25;101734.75;;;24.44;51.18
21706;BME280;11014;53.076;18.208;2023-08-17T02:23:54;101730.06;;;24.44;nan
21706;BME280;11014;53.076;18.208;2023-08-17T02:26:23;101735.56;;;24.44;50.78
21706;BME280;11014;53.076;18.208;2023-08-17T02:28:52;101741.06;;;24.44;51.21
21706;BME280;11014;53.076;18.208;2023-08-17T02:31:20;101743.50;;;24.46;50.96
21706;BME280;11014;53.076;18.208;2023-08-17T02:33:49;101741.28;;;24.48;50.91
21706;BME280;11014;53.076;18.208;2023-08-17T02:36:17;101743.72;;;24.49;51.00
21706;BME280;11014;53.076;18.208;2023-08-17T02:38:46;101741.50;;;24.51;51.41
21706;BME280;11014;53.076;18.208;2023-08-17T02:41:15;101738.25;;;24.49;51.38
21706;BME280;11014;53.076;18.208;2023-08-17T02:43:43;101737.22;;;24.45;51.18
21706;BME280;11014;53.076;18.208;2023-08-17T02:46:13;101733.66;;;24.45;51.27
21706;BME280;11014;53.076;18.208;2023-08-17T02:48:42;101730.91;;;24.45;51.12
21706;BME280;11014;53.076;18.208;2023-08-17T02:51:13;101735.66;;;24.39;51.67
21706;BME280;11014;53.076;18.208;2023-08-17T02:53:42;101736.22;;;24.36;52.05
21706;BME280;11014;53.076;18.208;2023-08-17T02:56:10;101731.00;;;24.35;51.73
21706;BME280;11014;53.076;18.208;2023-08-17T02:58:40;101734.59;;;24.35;51.50
21706;BME280;11014;53.076;18.208;2023-08-17T03:01:10;101727.16;;;24.36;51.59
21706;BME280;11014;53.076;18.208;2023-08-17T03:03:38;101726.84;;;24.37;51.45
21706;BME280;11014;53.076;18.208;2023-08-17T03:06:07;101725.31;;;24.31;51.68
21706;BME280;11014;53.076;18.208;2023-08-17T03:08:36;101729.59;;;24.37;51.62
21706;BME280;11014;53.076;18.208;2023-08-17T03:11:04;101739.41;;;24.43;51.17
21706;BME280;11014;53.076;18.208;2023-08-17T03:13:35;101733.34;;;24.46;51.42
21706;BME280;11014;53.076;18.208;2023-08-17T03:16:04;101733.91;;;24.43;51.75
21706;BME280;11014;53.076;18.208;2023-08-17T03:18:32;101745.44;;;24.45;51.77
21706;BME280;11014;53.076;18.208;2023-08-17T03:21:04;101741.56;;;24.46;51.00
21706;BME280;11014;53.076;18.208;2023-08-17T03:23:33;101727.84;;;24.46;51.44
21706;BME280;11014;53.076;18.208;2023-08-17T03:26:03;101728.22;;;24.40;51.29
21706;BME280;11014;53.076;18.208;2023-08-17T03:28:32;101733.41;;;24.41;51.34
21706;BME280;11014;53.076;18.208;2023-08-17T03:31:02;101738.31;;;24.44;51.05
21706;BME280;11014;53.076;18.208;2023-08-17T03:33:31;101736.38;;;24.45;50.88
21706;BME280;11014;53.076;18.208;2023-08-17T03:36:02;101746.56;;;24.44;50.42
21706;BME280;11014;53.076;18.208;2023-08-17T03:38:31;101745.97;;;24.47;50.40
21706;BME280;11014;53.076;18.208;2023-08-17T03:40:59;101751.66;;;24.51;50.52
21706;BME280;11014;53.076;18.208;2023-08-17T03:43:28;101761.28;;;24.53;50.28
21706;BME280;11014;53.076;18.208;2023-08-17T03:45:56;101770.03;;;24.55;50.10
21706;BME280;11014;53.076;18.208;2023-08-17T03:48:25;101770.53;;;24.57;50.18
21706;BME280;11014;53.076;18.208;2023-08-17T03:50:54;101766.44;;;24.55;50.41
21706;BME280;11014;53.076;18.208;2023-08-17T03:53:23;101775.53;;;24.55;49.99
21706;BME280;11014;53.076;18.208;2023-08-17T03:55:53;101788.94;;;24.57;49.96
21706;BME280;11014;53.076;18.208;2023-08-17T03:58:22;101795.25;;;24.57;50.25
21706;BME280;11014;53.076;18.208;2023-08-17T04:00:51;101797.72;;;24.59;50.27
21706;BME280;11014;53.076;18.208;2023-08-17T04:03:26;101806.47;;;24.61;50.54
21706;BME280;11014;53.076;18.208;2023-08-17T04:05:55;101801.81;;;24.61;50.70
21706;BME280;11014;53.076;18.208;2023-08-17T04:08:24;101805.97;;;24.59;51.13
21706;BME280;11014;53.076;18.208;2023-08-17T04:10:52;101804.59;;;24.56;52.26
21706;BME280;11014;53.076;18.208;2023-08-17T04:13:23;101808.19;;;24.75;53.46
21706;BME280;11014;53.076;18.208;2023-08-17T04:15:52;101809.34;;;24.93;52.88
21706;BME280;11014;53.076;18.208;2023-08-17T04:18:22;101812.16;;;25.07;51.99
21706;BME280;11014;53.076;18.208;2023-08-17T04:20:53;101812.81;;;25.17;52.41
21706;BME280;11014;53.076;18.208;2023-08-17T04:23:23;101808.28;;;25.26;52.82
21706;BME280;11014;53.076;18.208;2023-08-17T04:25:53;101805.56;;;25.40;53.60
21706;BME280;11014;53.076;18.208;2023-08-17T04:28:23;101818.06;;;25.51;52.93
21706;BME280;11014;53.076;18.208;2023-08-17T04:30:53;101838.56;;;25.59;52.19
21706;BME280;11014;53.076;18.208;2023-08-17T04:33:21;101854.25;;;25.58;52.22
21706;BME280;11014;53.076;18.208;2023-08-17T04:35:50;101861.50;;;25.54;51.89
21706;BME280;11014;53.076;18.208;2023-08-17T04:38:19;101863.00;;;25.60;51.50
21706;BME280;11014;53.076;18.208;2023-08-17T04:40:47;101845.31;;;25.66;52.02
21706;BME280;11014;53.076;18.208;2023-08-17T04:43:16;101824.50;;;25.74;52.53
21706;BME280;11014;53.076;18.208;2023-08-17T04:45:44;101831.09;;;25.91;50.87
21706;BME280;11014;53.076;18.208;2023-08-17T04:48:18;101837.41;;;25.78;49.98
21706;BME280;11014;53.076;18.208;2023-08-17T04:50:54;101835.22;;;25.62;50.41
21706;BME280;11014;53.076;18.208;2023-08-17T04:53:25;101837.38;;;25.46;50.14
21706;BME280;11014;53.076;18.208;2023-08-17T04:55:54;101839.25;;;25.32;50.69
21706;BME280;11014;53.076;18.208;2023-08-17T04:58:22;101839.41;;;25.22;50.64
21706;BME280;11014;53.076;18.208;2023-08-17T05:00:51;101825.75;;;25.17;nan
21706;BME280;11014;53.076;18.208;2023-08-17T05:03:20;101826.34;;;25.14;51.15
21706;BME280;11014;53.076;18.208;2023-08-17T05:06:01;101828.06;;;25.10;51.01
21706;BME280;11014;53.076;18.208;2023-08-17T05:08:31;101827.09;;;25.01;51.26
21706;BME280;11014;53.076;18.208;2023-08-17T05:10:59;101828.22;;;25.00;51.30
21706;BME280;11014;53.076;18.208;2023-08-17T05:13:28;101830.34;;;25.03;51.71
21706;BME280;11014;53.076;18.208;2023-08-17T05:16:00;101828.75;;;25.02;51.85
21706;BME280;11014;53.076;18.208;2023-08-17T05:18:30;101816.59;;;25.03;51.55
21706;BME280;11014;53.076;18.208;2023-08-17T05:20:58;101813.94;;;24.98;51.50
21706;BME280;11014;53.076;18.208;2023-08-17T05:23:27;101804.66;;;24.94;51.81
21706;BME280;11014;53.076;18.208;2023-08-17T05:25:56;101800.78;;;24.95;52.07
21706;BME280;11014;53.076;18.208;2023-08-17T05:28:24;101809.78;;;25.00;51.82
21706;BME280;11014;53.076;18.208;2023-08-17T05:30:55;101815.50;;;25.04;51.88
21706;BME280;11014;53.076;18.208;2023-08-17T05:33:25;101816.31;;;25.04;51.80
21706;BME280;11014;53.076;18.208;2023-08-17T05:35:54;101827.69;;;24.98;51.96
21706;BME280;11014;53.076;18.208;2023-08-17T05:38:23;101812.25;;;25.02;51.66
21706;BME280;11014;53.076;18.208;2023-08-17T05:40:55;101799.47;;;25.11;51.79
21706;BME280;11014;53.076;18.208;2023-08-17T05:43:25;101798.91;;;25.09;51.62
21706;BME280;11014;53.076;18.208;2023-08-17T05:45:57;101808.81;;;25.10;51.60
21706;BME280;11014;53.076;18.208;2023-08-17T05:48:26;101802.81;;;25.40;51.12
21706;BME280;11014;53.076;18.208;2023-08-17T05:50:55;101803.22;;;25.15;51.18
21706;BME280;11014;53.076;18.208;2023-08-17T05:53:25;101809.91;;;25.09;51.24
21706;BME280;11014;53.076;18.208;2023-08-17T05:55:54;101800.66;;;25.05;51.25
21706;BME280;11014;53.076;18.208;2023-08-17T05:58:22;101801.47;;;25.05;51.27
21706;BME280;11014;53.076;18.208;2023-08-17T06:00:51;101821.88;;;25.18;51.50
21706;BME280;11014;53.076;18.208;2023-08-17T06:03:20;101821.28;;;25.21;50.76
21706;BME280;11014;53.076;18.208;2023-08-17T06:05:52;101831.09;;;25.27;50.60
21706;BME280;11014;53.076;18.208;2023-08-17T06:08:21;101846.38;;;25.33;50.90
21706;BME280;11014;53.076;18.208;2023-08-17T06:10:49;101866.00;;;25.45;50.26
21706;BME280;11014;53.076;18.208;2023-08-17T06:13:18;101868.09;;;25.53;50.23
21706;BME280;11014;53.076;18.208;2023-08-17T06:15:47;101859.97;;;25.62;50.01
21706;BME280;11014;53.076;18.208;2023-08-17T06:18:16;101863.88;;;25.74;50.40
21706;BME280;11014;53.076;18.208;2023-08-17T06:20:45;101859.31;;;25.83;50.36
21706;BME280;11014;53.076;18.208;2023-08-17T06:23:15;101865.16;;;25.96;49.65
21706;BME280;11014;53.076;18.208;2023-08-17T06:25:44;101862.81;;;26.03;49.74
21706;BME280;11014;53.076;18.208;2023-08-17T06:28:13;101862.72;;;26.08;49.68
21706;BME280;11014;53.076;18.208;2023-08-17T06:30:42;101858.84;;;26.09;49.35
21706;BME280;11014;53.076;18.208;2023-08-17T06:33:10;101850.53;;;26.14;48.91
21706;BME280;11014;53.076;18.208;2023-08-17T06:35:39;101856.75;;;26.19;48.92
21706;BME280;11014;53.076;18.208;2023-08-17T06:38:09;101850.53;;;26.14;48.84
21706;BME280;11014;53.076;18.208;2023-08-17T06:40:38;101852.75;;;26.12;48.93
21706;BME280;11014;53.076;18.208;2023-08-17T06:43:07;101846.66;;;26.15;48.80
21706;BME280;11014;53.076;18.208;2023-08-17T06:45:37;101849.31;;;26.20;48.95
21706;BME280;11014;53.076;18.208;2023-08-17T06:48:06;101845.00;;;26.27;48.86
21706;BME280;11014;53.076;18.208;2023-08-17T06:50:35;101847.44;;;26.29;48.28
21706;BME280;11014;53.076;18.208;2023-08-17T06:53:04;101845.22;;;26.31;48.56
21706;BME280;11014;53.076;18.208;2023-08-17T06:55:33;101846.44;;;26.25;48.08
21706;BME280;11014;53.076;18.208;2023-08-17T06:58:02;101846.22;;;26.21;48.34
21706;BME280;11014;53.076;18.208;2023-08-17T07:00:30;101847.06;;;26.22;47.95
21706;BME280;11014;53.076;18.208;2023-08-17T07:02:59;101850.81;;;26.26;48.36
21706;BME280;11014;53.076;18.208;2023-08-17T07:05:28;101845.00;;;26.27;48.11
21706;BME280;11014;53.076;18.208;2023-08-17T07:07:58;101838.47;;;26.37;48.48
21706;BME280;11014;53.076;18.208;2023-08-17T07:10:27;101840.59;;;26.40;47.98
21706;BME280;11014;53.076;18.208;2023-08-17T07:12:56;101838.19;;;26.38;47.38
21706;BME280;11014;53.076;18.208;2023-08-17T07:15:26;101838.88;;;26.44;47.78
21706;BME280;11014;53.076;18.208;2023-08-17T07:17:56;101840.00;;;26.43;47.62
21706;BME280;11014;53.076;18.208;2023-08-17T07:20:27;101838.06;;;26.57;47.41
21706;BME280;11014;53.076;18.208;2023-08-17T07:22:56;101853.53;;;26.67;46.89
21706;BME280;11014;53.076;18.208;2023-08-17T07:25:25;101846.41;;;26.79;47.43
21706;BME280;11014;53.076;18.208;2023-08-17T07:28:19;101851.66;;;27.03;46.48
21706;BME280;11014;53.076;18.208;2023-08-17T07:30:47;101860.25;;;27.01;46.73
21706;BME280;11014;53.076;18.208;2023-08-17T07:33:17;101868.41;;;27.06;46.43
21706;BME280;11014;53.076;18.208;2023-08-17T07:35:45;101870.06;;;27.08;46.00
21706;BME280;11014;53.076;18.208;2023-08-17T07:38:14;101865.53;;;27.12;46.05
21706;BME280;11014;53.076;18.208;2023-08-17T07:40:43;101856.50;;;27.20;46.27
21706;BME280;11014;53.076;18.208;2023-08-17T07:43:12;101848.88;;;27.39;46.27
21706;BME280;11014;53.076;18.208;2023-08-17T07:45:40;101850.28;;;27.50;45.90
21706;BME280;11014;53.076;18.208;2023-08-17T07:48:09;101862.81;;;27.56;45.02
21706;BME280;11014;53.076;18.208;2023-08-17T07:50:38;101860.56;;;27.58;45.14
21706;BME280;11014;53.076;18.208;2023-08-17T07:53:07;101863.94;;;27.55;45.41
21706;BME280;11014;53.076;18.208;2023-08-17T07:55:36;101855.38;;;27.56;45.04
21706;BME280;11014;53.076;18.208;2023-08-17T07:58:05;101856.53;;;27.64;45.07
21706;BME280;11014;53.076;18.208;2023-08-17T08:00:34;101849.75;;;27.70;45.59
21706;BME280;11014;53.076;18.208;2023-08-17T08:03:04;101861.44;;;27.67;45.25
21706;BME280;11014;53.076;18.208;2023-08-17T08:05:34;101857.28;;;27.78;45.69
21706;BME280;11014;53.076;18.208;2023-08-17T08:08:04;101859.28;;;27.86;45.90
21706;BME280;11014;53.076;18.208;2023-08-17T08:10:35;101855.38;;;27.87;45.64
21706;BME280;11014;53.076;18.208;2023-08-17T08:13:05;101864.66;;;27.91;46.02
21706;BME280;11014;53.076;18.208;2023-08-17T08:15:34;101860.00;;;28.00;46.08
21706;BME280;11014;53.076;18.208;2023-08-17T08:18:03;101873.69;;;28.05;45.85
21706;BME280;11014;53.076;18.208;2023-08-17T08:20:35;101885.09;;;28.12;45.97
21706;BME280;11014;53.076;18.208;2023-08-17T08:23:04;101894.09;;;28.27;46.14
21706;BME280;11014;53.076;18.208;2023-08-17T08:25:34;101891.56;;;28.39;45.33
21706;BME280;11014;53.076;18.208;2023-08-17T08:28:05;101876.81;;;28.52;45.71
21706;BME280;11014;53.076;18.208;2023-08-17T08:30:34;101878.50;;;28.70;45.71
21706;BME280;11014;53.076;18.208;2023-08-17T08:33:03;101865.19;;;28.89;44.70
21706;BME280;11014;53.076;18.208;2023-08-17T08:35:33;101858.22;;;29.09;43.99
21706;BME280;11014;53.076;18.208;2023-08-17T08:38:02;101846.19;;;29.22;43.11
21706;BME280;11014;53.076;18.208;2023-08-17T08:40:31;101828.47;;;29.31;43.75
21706;BME280;11014;53.076;18.208;2023-08-17T08:43:04;101814.75;;;29.44;44.37
21706;BME280;11014;53.076;18.208;2023-08-17T08:45:35;101824.50;;;29.50;42.20
21706;BME280;11014;53.076;18.208;2023-08-17T08:48:06;101808.25;;;29.40;42.56
21706;BME280;11014;53.076;18.208;2023-08-17T08:50:36;101808.25;;;29.40;42.85
21706;BME280;11014;53.076;18.208;2023-08-17T08:53:11;101800.59;;;29.45;43.63
21706;BME280;11014;53.076;18.208;2023-08-17T08:55:57;101799.41;;;29.55;42.96
21706;BME280;11014;53.076;18.208;2023-08-17T08:58:29;101807.53;;;29.60;44.39
21706;BME280;11014;53.076;18.208;2023-08-17T09:00:58;101813.34;;;29.84;43.68
21706;BME280;11014;53.076;18.208;2023-08-17T09:03:28;101805.16;;;29.96;42.81
21706;BME280;11014;53.076;18.208;2023-08-17T09:05:56;101801.69;;;30.08;42.92
21706;BME280;11014;53.076;18.208;2023-08-17T09:08:30;101800.56;;;30.00;41.50
21706;BME280;11014;53.076;18.208;2023-08-17T09:10:58;101806.31;;;29.95;41.66
21706;BME280;11014;53.076;18.208;2023-08-17T09:13:28;101807.75;;;30.01;42.02
21706;BME280;11014;53.076;18.208;2023-08-17T09:15:58;101808.41;;;29.98;41.57
21706;BME280;11014;53.076;18.208;2023-08-17T09:18:34;101816.53;;;30.03;42.38
21706;BME280;11014;53.076;18.208;2023-08-17T09:21:06;101818.00;;;30.01;42.14
21706;BME280;11014;53.076;18.208;2023-08-17T09:23:39;101819.50;;;29.98;41.90
21706;BME280;11014;53.076;18.208;2023-08-17T09:26:09;101812.50;;;29.92;42.17
21706;BME280;11014;53.076;18.208;2023-08-17T09:28:39;101807.91;;;30.05;43.50
21706;BME280;11014;53.076;18.208;2023-08-17T09:31:09;101810.25;;;30.23;42.58
21706;BME280;11014;53.076;18.208;2023-08-17T09:33:38;101810.53;;;30.30;41.80
21706;BME280;11014;53.076;18.208;2023-08-17T09:36:15;101805.53;;;30.24;42.51
21706;BME280;11014;53.076;18.208;2023-08-17T09:38:53;101795.91;;;30.21;42.89
21706;BME280;11014;53.076;18.208;2023-08-17T09:41:21;101784.44;;;30.31;42.34
21706;BME280;11014;53.076;18.208;2023-08-17T09:43:58;101774.63;;;30.42;42.32
21706;BME280;11014;53.076;18.208;2023-08-17T09:46:27;101778.81;;;30.48;41.27
21706;BME280;11014;53.076;18.208;2023-08-17T09:48:56;101769.63;;;30.57;41.59
21706;BME280;11014;53.076;18.208;2023-08-17T09:51:24;101767.25;;;30.67;42.88
21706;BME280;11014;53.076;18.208;2023-08-17T09:53:53;101769.41;;;30.82;42.43
21706;BME280;11014;53.076;18.208;2023-08-17T09:56:27;101766.06;;;30.97;41.66
21706;BME280;11014;53.076;18.208;2023-08-17T09:58:56;101761.69;;;31.08;41.57
21706;BME280;11014;53.076;18.208;2023-08-17T10:01:27;101756.06;;;31.17;41.71
21706;BME280;11014;53.076;18.208;2023-08-17T10:03:58;101744.53;;;31.27;40.55
21706;BME280;11014;53.076;18.208;2023-08-17T10:06:28;101737.47;;;31.30;40.25
21706;BME280;11014;53.076;18.208;2023-08-17T10:09:00;101741.28;;;31.25;41.64
21706;BME280;11014;53.076;18.208;2023-08-17T10:11:31;101738.41;;;31.34;41.86
21706;BME280;11014;53.076;18.208;2023-08-17T10:14:09;101736.50;;;31.46;40.36
21706;BME280;11014;53.076;18.208;2023-08-17T10:16:45;101727.56;;;31.41;40.24
21706;BME280;11014;53.076;18.208;2023-08-17T10:22:29;101719.63;;;31.63;41.91
21706;BME280;11014;53.076;18.208;2023-08-17T10:25:03;101715.91;;;31.59;41.33
21706;BME280;11014;53.076;18.208;2023-08-17T10:27:34;101706.31;;;31.57;41.04
21706;BME280;11014;53.076;18.208;2023-08-17T10:30:03;101696.47;;;31.59;41.09
21706;BME280;11014;53.076;18.208;2023-08-17T10:33:01;101695.78;;;31.87;41.81
21706;BME280;11014;53.076;18.208;2023-08-17T10:35:59;101703.44;;;32.02;41.42
21706;BME280;11014;53.076;18.208;2023-08-17T10:38:28;101699.00;;;31.89;40.67
21706;BME280;11014;53.076;18.208;2023-08-17T10:41:14;101696.91;;;31.98;41.09
21706;BME280;11014;53.076;18.208;2023-08-17T10:43:56;101699.69;;;31.98;41.05
21706;BME280;11014;53.076;18.208;2023-08-17T10:46:32;101710.38;;;31.96;40.97
21706;BME280;11014;53.076;18.208;2023-08-17T10:49:06;101716.03;;;31.99;41.51
21706;BME280;11014;53.076;18.208;2023-08-17T10:51:36;101719.31;;;32.01;41.46
21706;BME280;11014;53.076;18.208;2023-08-17T10:54:05;101713.97;;;31.96;41.91
21706;BME280;11014;53.076;18.208;2023-08-17T10:56:58;101703.78;;;32.12;40.98
21706;BME280;11014;53.076;18.208;2023-08-17T10:59:27;101708.84;;;31.98;41.93
21706;BME280;11014;53.076;18.208;2023-08-17T11:01:56;101703.19;;;32.07;40.91
21706;BME280;11014;53.076;18.208;2023-08-17T11:04:24;101706.31;;;32.17;43.12
21706;BME280;11014;53.076;18.208;2023-08-17T11:07:02;101715.53;;;32.34;41.22
21706;BME280;11014;53.076;18.208;2023-08-17T11:09:35;101719.59;;;32.36;40.45
21706;BME280;11014;53.076;18.208;2023-08-17T11:12:04;101726.09;;;32.40;41.94
21706;BME280;11014;53.076;18.208;2023-08-17T11:14:33;101724.22;;;32.56;41.29
21706;BME280;11014;53.076;18.208;2023-08-17T11:17:03;101727.16;;;32.75;41.01
21706;BME280;11014;53.076;18.208;2023-08-17T11:19:33;101725.22;;;32.92;41.08
21706;BME280;11014;53.076;18.208;2023-08-17T11:22:02;101722.50;;;33.07;41.22
21706;BME280;11014;53.076;18.208;2023-08-17T11:24:31;101718.59;;;33.24;40.02
21706;BME280;11014;53.076;18.208;2023-08-17T11:27:00;101716.88;;;33.35;41.54
21706;BME280;11014;53.076;18.208;2023-08-17T11:29:31;101724.69;;;33.45;40.06
21706;BME280;11014;53.076;18.208;2023-08-17T11:32:00;101725.88;;;33.44;38.88
21706;BME280;11014;53.076;18.208;2023-08-17T11:34:30;101719.66;;;33.51;38.49
21706;BME280;11014;53.076;18.208;2023-08-17T11:37:00;101717.91;;;33.58;39.30
21706;BME280;11014;53.076;18.208;2023-08-17T11:39:35;101704.31;;;33.72;38.02
21706;BME280;11014;53.076;18.208;2023-08-17T11:42:04;101706.66;;;33.70;39.42
21706;BME280;11014;53.076;18.208;2023-08-17T11:44:33;101712.41;;;33.77;39.48
21706;BME280;11014;53.076;18.208;2023-08-17T11:47:02;101714.13;;;33.82;38.92
21706;BME280;11014;53.076;18.208;2023-08-17T11:49:31;101705.28;;;33.95;39.23
21706;BME280;11014;53.076;18.208;2023-08-17T11:52:09;101700.50;;;34.12;40.26
21706;BME280;11014;53.076;18.208;2023-08-17T11:54:42;101694.06;;;34.27;38.90
21706;BME280;11014;53.076;18.208;2023-08-17T11:57:11;101695.56;;;34.40;38.59
21706;BME280;11014;53.076;18.208;2023-08-17T11:59:39;101693.22;;;34.42;37.75
21706;BME280;11014;53.076;18.208;2023-08-17T12:02:11;101689.81;;;34.52;36.80
21706;BME280;11014;53.076;18.208;2023-08-17T12:04:40;101693.69;;;34.63;37.79
21706;BME280;11014;53.076;18.208;2023-08-17T12:07:09;101695.44;;;34.71;38.54
21706;BME280;11014;53.076;18.208;2023-08-17T12:09:37;101694.56;;;34.86;36.67
21706;BME280;11014;53.076;18.208;2023-08-17T12:12:07;101697.25;;;34.83;37.66
21706;BME280;11014;53.076;18.208;2023-08-17T12:14:37;101692.78;;;34.97;36.20
21706;BME280;11014;53.076;18.208;2023-08-17T12:17:15;101694.44;;;35.21;36.61
21706;BME280;11014;53.076;18.208;2023-08-17T12:19:53;101694.31;;;35.59;35.48
21706;BME280;11014;53.076;18.208;2023-08-17T12:22:25;101683.16;;;36.42;34.42
21706;BME280;11014;53.076;18.208;2023-08-17T12:24:55;101678.94;;;37.28;34.50
21706;BME280;11014;53.076;18.208;2023-08-17T12:27:27;101694.88;;;38.19;31.50
21706;BME280;11014;53.076;18.208;2023-08-17T12:29:55;101685.16;;;38.99;31.79
21706;BME280;11014;53.076;18.208;2023-08-17T12:32:24;101688.03;;;39.74;31.06
21706;BME280;11014;53.076;18.208;2023-08-17T12:34:53;101688.66;;;40.45;29.80
21706;BME280;11014;53.076;18.208;2023-08-17T12:37:23;101682.34;;;41.03;27.53
21706;BME280;11014;53.076;18.208;2023-08-17T12:39:51;101673.28;;;41.29;27.23
21706;BME280;11014;53.076;18.208;2023-08-17T12:42:20;101664.16;;;41.62;27.37
21706;BME280;11014;53.076;18.208;2023-08-17T12:44:50;101661.97;;;42.18;26.06
21706;BME280;11014;53.076;18.208;2023-08-17T12:47:18;101665.28;;;42.73;25.82
21706;BME280;11014;53.076;18.208;2023-08-17T12:49:47;101670.91;;;43.27;24.83
21706;BME280;11014;53.076;18.208;2023-08-17T12:52:16;101670.16;;;43.73;25.24
21706;BME280;11014;53.076;18.208;2023-08-17T12:54:45;101667.00;;;44.10;24.51
21706;BME280;11014;53.076;18.208;2023-08-17T12:57:20;101664.22;;;44.46;24.11
21706;BME280;11014;53.076;18.208;2023-08-17T13:03:34;101641.72;;;45.55;23.05